createdAt,value
2023-01-29T00:00:18.597Z,11.90
2023-01-29T00:03:07.536Z,12.60
2023-01-29T00:05:36.073Z,13.00
2023-01-29T00:08:05.093Z,13.90
2023-01-29T00:10:33.972Z,12.90
2023-01-29T00:13:02.468Z,13.30
2023-01-29T00:15:31.255Z,12.20
2023-01-29T00:18:00.357Z,13.20
2023-01-29T00:20:28.878Z,12.90
2023-01-29T00:22:57.624Z,13.50
2023-01-29T00:25:26.207Z,13.30
2023-01-29T00:27:55.207Z,13.40
2023-01-29T00:30:23.988Z,12.90
2023-01-29T00:32:54.244Z,12.10
2023-01-29T00:35:23.103Z,12.40
2023-01-29T00:37:51.998Z,12.90
2023-01-29T00:40:20.679Z,11.60
2023-01-29T00:43:08.626Z,11.40
2023-01-29T00:45:37.517Z,11.10
2023-01-29T00:48:07.630Z,11.80
2023-01-29T00:50:36.422Z,12.10
2023-01-29T00:53:05.252Z,11.90
2023-01-29T00:55:33.800Z,13.40
2023-01-29T00:58:02.583Z,11.60
2023-01-29T01:00:31.714Z,12.20
2023-01-29T01:03:06.304Z,12.70
2023-01-29T01:05:37.195Z,11.80
2023-01-29T01:08:26.209Z,12.90
2023-01-29T01:11:13.120Z,13.00
2023-01-29T01:13:41.919Z,11.10
2023-01-29T01:16:13.298Z,11.00
2023-01-29T01:18:43.682Z,11.70
2023-01-29T01:21:12.370Z,11.40
2023-01-29T01:23:41.363Z,11.50
2023-01-29T01:26:11.369Z,10.50
2023-01-29T01:28:40.276Z,10.90
2023-01-29T01:31:14.160Z,11.80
2023-01-29T01:33:42.867Z,10.60
2023-01-29T01:36:11.351Z,10.90
2023-01-29T01:38:45.060Z,11.00
2023-01-29T01:41:17.180Z,9.40
2023-01-29T01:43:51.487Z,10.10
2023-01-29T01:46:20.791Z,10.10
2023-01-29T01:48:59.062Z,10.60
2023-01-29T01:51:31.111Z,11.20
2023-01-29T01:54:08.892Z,11.00
2023-01-29T01:56:43.959Z,11.40
2023-01-29T01:59:16.500Z,11.50
2023-01-29T02:01:52.323Z,10.40
2023-01-29T02:04:42.988Z,10.30
2023-01-29T02:07:34.198Z,10.90
2023-01-29T02:10:14.637Z,10.60
2023-01-29T02:12:45.823Z,10.50
2023-01-29T02:15:14.806Z,9.60
2023-01-29T02:17:48.596Z,10.30
2023-01-29T02:20:32.242Z,10.40
2023-01-29T02:23:36.646Z,10.00
2023-01-29T02:26:21.227Z,10.30
2023-01-29T02:29:23.501Z,10.70
2023-01-29T02:32:03.404Z,10.10
2023-01-29T02:35:06.242Z,10.00
2023-01-29T02:38:01.959Z,9.80
2023-01-29T02:40:41.381Z,10.20
2023-01-29T02:43:52.170Z,10.30
2023-01-29T02:46:23.392Z,10.30
2023-01-29T02:49:06.335Z,8.90
2023-01-29T02:51:37.426Z,9.30
2023-01-29T02:54:17.639Z,8.80
2023-01-29T02:56:50.602Z,9.00
2023-01-29T02:59:30.291Z,9.00
2023-01-29T03:02:14.363Z,9.30
2023-01-29T03:04:51.769Z,9.30
2023-01-29T03:07:43.328Z,8.20
2023-01-29T03:10:28.507Z,8.70
2023-01-29T03:13:35.167Z,9.20
2023-01-29T03:16:32.227Z,9.10
2023-01-29T03:19:12.200Z,10.00
2023-01-29T03:22:02.168Z,10.10
2023-01-29T03:24:56.787Z,9.50
2023-01-29T03:27:53.813Z,9.70
2023-01-29T03:30:44.924Z,8.70
2023-01-29T03:33:28.766Z,8.10
2023-01-29T03:36:03.260Z,8.90
2023-01-29T03:38:32.696Z,8.30
2023-01-29T03:41:15.315Z,8.70
2023-01-29T03:46:32.629Z,8.10
2023-01-29T03:49:16.496Z,7.90
2023-01-29T03:51:56.441Z,8.90
2023-01-29T03:54:37.826Z,8.60
2023-01-29T03:57:29.039Z,7.70
2023-01-29T04:00:32.335Z,8.10
2023-01-29T04:03:19.163Z,8.20
2023-01-29T04:06:10.216Z,8.40
2023-01-29T04:08:50.724Z,8.00
2023-01-29T04:11:22.999Z,8.40
2023-01-29T04:13:52.815Z,7.30
2023-01-29T04:17:26.521Z,7.30
2023-01-29T04:20:05.774Z,6.20
2023-01-29T04:22:37.178Z,6.00
2023-01-29T04:25:16.335Z,6.30
2023-01-29T04:27:56.099Z,6.80
2023-01-29T04:30:43.552Z,6.70
2023-01-29T04:33:41.076Z,6.50
2023-01-29T04:36:53.096Z,6.50
2023-01-29T04:39:45.515Z,7.20
2023-01-29T04:42:34.578Z,6.90
2023-01-29T04:45:37.602Z,6.60
2023-01-29T04:48:21.722Z,6.40
2023-01-29T04:50:53.478Z,6.80
2023-01-29T04:53:36.502Z,8.00
2023-01-29T04:56:30.583Z,7.40
2023-01-29T04:59:07.767Z,7.70
2023-01-29T05:01:38.425Z,6.70
2023-01-29T05:04:14.261Z,7.00
2023-01-29T05:06:45.294Z,6.70
2023-01-29T05:09:16.518Z,7.20
2023-01-29T05:11:48.116Z,7.00
2023-01-29T05:14:20.061Z,7.50
2023-01-29T05:16:53.650Z,6.80
2023-01-29T05:19:22.460Z,7.00
2023-01-29T05:21:51.544Z,6.10
2023-01-29T05:24:22.931Z,6.10
2023-01-29T05:27:12.163Z,6.40
2023-01-29T05:29:47.515Z,6.30
2023-01-29T05:32:17.141Z,7.10
2023-01-29T05:34:45.708Z,7.60
2023-01-29T05:37:14.493Z,8.00
2023-01-29T05:39:43.278Z,7.80
2023-01-29T05:42:12.277Z,8.30
2023-01-29T05:44:40.928Z,8.20
2023-01-29T05:47:09.539Z,7.70
2023-01-29T05:49:38.887Z,8.00
2023-01-29T05:52:07.733Z,8.40
2023-01-29T05:54:36.424Z,7.80
2023-01-29T05:57:04.984Z,7.70
2023-01-29T05:59:33.663Z,7.40
2023-01-29T06:02:02.323Z,7.20
2023-01-29T06:04:30.917Z,7.50
2023-01-29T06:06:59.749Z,7.30
2023-01-29T06:09:28.435Z,7.50
2023-01-29T06:11:56.916Z,6.90
2023-01-29T06:14:25.912Z,7.40
2023-01-29T06:16:54.707Z,6.80
2023-01-29T06:19:23.164Z,7.60
2023-01-29T06:21:51.866Z,7.70
2023-01-29T06:24:20.868Z,7.50
2023-01-29T06:26:49.664Z,8.00
2023-01-29T06:29:18.238Z,7.40
2023-01-29T06:31:47.019Z,7.20
2023-01-29T06:34:15.915Z,6.80
2023-01-29T06:36:44.688Z,7.20
2023-01-29T06:39:13.291Z,6.60
2023-01-29T06:41:41.805Z,6.80
2023-01-29T06:44:10.456Z,6.80
2023-01-29T06:46:39.052Z,6.40
2023-01-29T06:50:08.045Z,6.10
2023-01-29T06:53:21.035Z,6.10
2023-01-29T06:56:52.628Z,6.30
2023-01-29T07:00:21.233Z,5.50
2023-01-29T07:08:08.306Z,8.40
2023-01-29T07:11:42.227Z,10.80
2023-01-29T07:15:10.881Z,7.80
2023-01-29T07:18:39.216Z,9.90
2023-01-29T07:21:08.160Z,8.20
2023-01-29T07:23:36.893Z,7.40
2023-01-29T07:26:07.006Z,7.20
2023-01-29T07:28:39.747Z,6.40
2023-01-29T07:31:12.092Z,7.10
2023-01-29T07:33:43.552Z,7.80
2023-01-29T07:36:13.740Z,5.90
2023-01-29T07:38:42.370Z,5.70
2023-01-29T07:41:12.409Z,7.30
2023-01-29T07:43:41.288Z,5.60
2023-01-29T07:46:10.119Z,7.50
2023-01-29T07:48:39.163Z,8.40
2023-01-29T07:51:07.873Z,7.60
2023-01-29T07:53:37.287Z,15.00
2023-01-29T07:56:06.361Z,16.40
2023-01-29T07:58:36.662Z,17.00
2023-01-29T08:01:10.600Z,7.60
2023-01-29T08:03:39.385Z,7.10
2023-01-29T08:06:08.197Z,7.40
2023-01-29T08:08:37.066Z,6.50
2023-01-29T08:11:05.953Z,6.90
2023-01-29T08:13:34.545Z,6.20
2023-01-29T08:16:05.038Z,6.30
2023-01-29T08:18:33.555Z,5.70
2023-01-29T08:21:02.657Z,5.80
2023-01-29T08:23:31.756Z,5.80
2023-01-29T08:26:03.314Z,6.30
2023-01-29T08:28:32.294Z,5.10
2023-01-29T08:31:01.409Z,4.90
2023-01-29T08:33:38.387Z,5.30
2023-01-29T08:36:09.400Z,5.80
2023-01-29T08:38:37.994Z,5.50
2023-01-29T08:41:07.614Z,5.30
2023-01-29T08:43:37.430Z,5.70
2023-01-29T08:46:06.984Z,5.90
2023-01-29T08:48:35.716Z,5.40
2023-01-29T08:51:05.606Z,6.00
2023-01-29T08:53:34.312Z,6.10
2023-01-29T08:56:03.208Z,6.40
2023-01-29T08:58:32.493Z,6.50
2023-01-29T09:01:12.990Z,5.70
2023-01-29T09:03:43.982Z,6.20
2023-01-29T09:06:14.771Z,6.30
2023-01-29T09:08:43.459Z,6.30
2023-01-29T09:11:12.410Z,6.40
2023-01-29T09:13:43.983Z,6.00
2023-01-29T09:16:12.874Z,6.20
2023-01-29T09:18:41.880Z,6.80
2023-01-29T09:21:10.654Z,7.00
2023-01-29T09:23:39.334Z,7.70
2023-01-29T09:27:07.934Z,7.00
2023-01-29T09:29:37.235Z,7.30
2023-01-29T09:32:07.049Z,6.80
2023-01-29T09:34:35.939Z,7.10
2023-01-29T09:37:05.141Z,6.80
2023-01-29T09:39:34.036Z,6.70
2023-01-29T09:42:19.202Z,6.00
2023-01-29T09:45:10.212Z,6.20
2023-01-29T09:47:39.001Z,6.00
2023-01-29T09:50:24.185Z,5.50
2023-01-29T09:53:15.390Z,6.50
2023-01-29T09:55:50.566Z,6.40
2023-01-29T09:58:40.411Z,6.20
2023-01-29T10:01:38.886Z,6.20
2023-01-29T10:04:31.867Z,6.20
2023-01-29T10:07:37.303Z,6.90
2023-01-29T10:10:17.780Z,7.10
2023-01-29T10:13:03.161Z,7.40
2023-01-29T10:16:01.014Z,8.00
2023-01-29T10:18:39.123Z,8.30
2023-01-29T10:21:27.479Z,8.00
2023-01-29T10:24:11.520Z,7.90
2023-01-29T10:26:41.416Z,7.90
2023-01-29T10:29:18.722Z,8.00
2023-01-29T10:31:52.770Z,8.10
2023-01-29T10:34:32.402Z,8.70
2023-01-29T10:37:07.305Z,9.10
2023-01-29T10:39:36.332Z,8.40
2023-01-29T10:42:40.412Z,9.40
2023-01-29T10:45:34.933Z,9.40
2023-01-29T10:48:15.893Z,8.40
2023-01-29T10:50:50.645Z,9.70
2023-01-29T10:53:28.009Z,9.10
2023-01-29T10:56:23.033Z,9.10
2023-01-29T10:58:56.518Z,10.00
2023-01-29T11:01:27.088Z,8.50
2023-01-29T11:03:59.813Z,9.30
2023-01-29T11:06:32.166Z,9.10
2023-01-29T11:12:16.887Z,8.60
2023-01-29T11:15:04.609Z,9.10
2023-01-29T11:17:33.294Z,8.00
2023-01-29T11:20:01.980Z,8.20
2023-01-29T11:22:31.897Z,8.30
2023-01-29T11:26:15.761Z,8.10
2023-01-29T11:33:36.485Z,9.80
2023-01-29T11:36:21.511Z,7.90
2023-01-29T11:39:16.767Z,8.00
2023-01-29T11:42:00.628Z,8.80
2023-01-29T11:44:33.990Z,9.00
2023-01-29T11:47:14.749Z,7.20
2023-01-29T11:49:50.532Z,7.90
2023-01-29T11:52:23.476Z,7.70
2023-01-29T11:55:01.317Z,7.90
2023-01-29T11:57:41.159Z,7.30
2023-01-29T12:00:25.223Z,8.30
2023-01-29T12:03:56.731Z,8.00
2023-01-29T12:10:48.314Z,7.70
2023-01-29T12:14:26.021Z,7.70
2023-01-29T12:18:07.106Z,7.30
2023-01-29T12:20:46.815Z,8.40
2023-01-29T12:23:33.109Z,7.60
2023-01-29T12:26:21.817Z,7.80
2023-01-29T12:29:18.347Z,7.60
2023-01-29T12:32:03.416Z,7.30
2023-01-29T12:34:43.743Z,7.70
2023-01-29T12:37:31.309Z,7.00
2023-01-29T12:40:02.064Z,7.00
2023-01-29T12:42:32.675Z,7.00
2023-01-29T12:45:11.296Z,7.50
2023-01-29T12:47:46.227Z,7.40
2023-01-29T12:50:21.450Z,7.30
2023-01-29T12:52:55.992Z,6.60
2023-01-29T12:55:27.272Z,6.20
2023-01-29T12:58:02.496Z,6.40
2023-01-29T13:00:41.183Z,6.10
2023-01-29T13:03:39.584Z,6.10
2023-01-29T13:07:12.243Z,6.20
2023-01-29T13:10:40.862Z,5.70
2023-01-29T13:13:41.145Z,5.50
2023-01-29T13:16:13.269Z,5.90
2023-01-29T13:18:50.899Z,5.60
2023-01-29T13:21:27.709Z,5.50
2023-01-29T13:25:04.717Z,5.80
2023-01-29T13:28:34.339Z,6.80
2023-01-29T13:32:13.882Z,6.50
2023-01-29T13:35:52.141Z,6.40
2023-01-29T13:39:26.905Z,6.50
2023-01-29T13:43:00.239Z,7.30
2023-01-29T13:46:32.017Z,7.40
2023-01-29T13:50:03.848Z,7.90
2023-01-29T13:52:45.481Z,7.80
2023-01-29T13:55:14.223Z,9.80
2023-01-29T13:57:48.980Z,11.20
2023-01-29T14:00:41.016Z,10.00
2023-01-29T14:03:56.117Z,10.00
2023-01-29T14:07:25.396Z,10.10
2023-01-29T14:10:48.588Z,9.80
2023-01-29T14:13:21.551Z,10.60
2023-01-29T14:16:13.122Z,9.40
2023-01-29T14:19:00.656Z,8.70
2023-01-29T14:21:35.082Z,9.80
2023-01-29T14:24:18.321Z,9.50
2023-01-29T14:26:49.795Z,9.10
2023-01-29T14:29:39.981Z,9.10
2023-01-29T14:32:22.318Z,9.40
2023-01-29T14:37:41.855Z,8.80
2023-01-29T14:40:16.214Z,9.20
2023-01-29T14:42:52.681Z,10.00
2023-01-29T14:45:42.464Z,9.00
2023-01-29T14:48:11.400Z,8.50
2023-01-29T14:50:46.409Z,9.20
2023-01-29T14:54:05.357Z,8.90
2023-01-29T14:56:59.946Z,8.60
2023-01-29T14:59:39.499Z,8.80
2023-01-29T15:02:19.162Z,8.40
2023-01-29T15:04:55.191Z,8.90
2023-01-29T15:07:40.399Z,9.40
2023-01-29T15:10:40.488Z,9.80
2023-01-29T15:13:25.254Z,8.50
2023-01-29T15:16:10.104Z,9.60
2023-01-29T15:19:15.112Z,8.90
2023-01-29T15:22:14.572Z,9.20
2023-01-29T15:24:44.708Z,8.20
2023-01-29T15:27:16.418Z,9.50
2023-01-29T15:30:01.192Z,9.70
2023-01-29T15:32:34.693Z,9.30
2023-01-29T15:35:11.072Z,10.00
2023-01-29T15:37:40.781Z,10.90
2023-01-29T15:40:17.004Z,11.50
2023-01-29T15:42:48.916Z,11.90
2023-01-29T15:48:16.285Z,12.20
2023-01-29T15:50:46.202Z,10.90
2023-01-29T15:53:29.837Z,12.10
2023-01-29T15:56:00.478Z,9.80
2023-01-29T15:58:32.624Z,9.70
2023-01-29T16:01:02.504Z,9.60
2023-01-29T16:03:33.758Z,16.70
2023-01-29T16:06:03.823Z,20.80
2023-01-29T16:08:34.553Z,28.50
2023-01-29T16:11:06.291Z,17.40
2023-01-29T16:13:39.915Z,26.70
2023-01-29T16:16:24.469Z,25.80
2023-01-29T16:19:00.571Z,22.30
2023-01-29T16:21:38.319Z,15.70
2023-01-29T16:24:14.259Z,12.50
2023-01-29T16:26:46.621Z,15.30
2023-01-29T16:29:18.788Z,9.90
2023-01-29T16:34:33.407Z,7.10
2023-01-29T16:37:06.052Z,7.40
2023-01-29T16:39:40.199Z,14.30
2023-01-29T16:42:20.225Z,34.30
2023-01-29T16:45:28.372Z,53.90
2023-01-29T16:48:27.877Z,15.00
2023-01-29T16:51:22.132Z,19.40
2023-01-29T16:54:17.776Z,11.20
2023-01-29T16:56:48.238Z,8.80
2023-01-29T16:59:27.553Z,7.10
2023-01-29T17:01:56.675Z,8.10
2023-01-29T17:04:25.425Z,9.20
2023-01-29T17:07:02.224Z,9.90
2023-01-29T17:09:34.762Z,10.40
2023-01-29T17:12:09.380Z,10.40
2023-01-29T17:14:38.911Z,11.50
2023-01-29T17:17:17.805Z,12.40
2023-01-29T17:19:46.746Z,12.90
2023-01-29T17:22:15.545Z,11.50
2023-01-29T17:24:44.821Z,7.40
2023-01-29T17:27:20.715Z,7.90
2023-01-29T17:29:52.035Z,6.90
2023-01-29T17:32:21.543Z,5.90
2023-01-29T17:34:51.667Z,6.00
2023-01-29T17:37:20.546Z,6.40
2023-01-29T17:39:50.776Z,6.80
2023-01-29T17:42:19.460Z,7.10
2023-01-29T17:44:48.036Z,9.70
2023-01-29T17:47:17.027Z,7.80
2023-01-29T17:49:45.799Z,7.40
2023-01-29T17:52:14.199Z,6.70
2023-01-29T17:54:43.189Z,7.50
2023-01-29T17:57:15.542Z,7.10
2023-01-29T17:59:45.174Z,7.00
2023-01-29T18:02:29.777Z,7.20
2023-01-29T18:04:59.340Z,7.30
2023-01-29T18:07:27.958Z,6.90
2023-01-29T18:09:56.714Z,7.10
2023-01-29T18:12:25.780Z,7.30
2023-01-29T18:14:54.292Z,7.70
2023-01-29T18:17:23.544Z,8.10
2023-01-29T18:19:52.582Z,8.10
2023-01-29T18:22:21.371Z,7.30
2023-01-29T18:24:50.160Z,6.60
2023-01-29T18:27:19.103Z,6.80
2023-01-29T18:29:50.304Z,7.50
2023-01-29T18:33:18.686Z,8.40
2023-01-29T18:36:27.411Z,9.10
2023-01-29T18:38:57.436Z,10.60
2023-01-29T18:41:26.429Z,10.30
2023-01-29T18:43:55.135Z,11.00
2023-01-29T18:46:24.619Z,11.70
2023-01-29T18:48:53.540Z,11.80
2023-01-29T18:51:22.503Z,12.00
2023-01-29T18:53:52.100Z,12.10
2023-01-29T18:56:20.977Z,12.40
2023-01-29T18:58:52.412Z,12.80
2023-01-29T19:01:24.686Z,12.40
2023-01-29T19:03:54.370Z,12.60
2023-01-29T19:06:22.912Z,12.80
2023-01-29T19:08:51.708Z,14.30
2023-01-29T19:11:20.690Z,14.70
2023-01-29T19:13:50.303Z,14.50
2023-01-29T19:16:19.000Z,14.00
2023-01-29T19:18:48.000Z,13.20
2023-01-29T19:21:22.003Z,12.10
2023-01-29T19:23:50.989Z,10.80
2023-01-29T19:26:19.708Z,10.60
2023-01-29T19:28:48.566Z,10.20
2023-01-29T19:31:17.472Z,13.50
2023-01-29T19:33:46.064Z,11.90
2023-01-29T19:36:14.625Z,13.50
2023-01-29T19:38:43.424Z,12.30
2023-01-29T19:41:12.011Z,12.20
2023-01-29T19:43:42.326Z,10.50
2023-01-29T19:46:11.157Z,11.00
2023-01-29T19:48:40.109Z,11.50
2023-01-29T19:52:12.880Z,17.00
2023-01-29T19:55:44.667Z,21.20
2023-01-29T19:59:13.152Z,13.00
2023-01-29T20:02:45.533Z,9.30
2023-01-29T20:06:13.923Z,9.40
2023-01-29T20:09:42.316Z,8.80
2023-01-29T20:13:11.210Z,9.40
2023-01-29T20:16:39.947Z,12.00
2023-01-29T20:19:17.028Z,11.30
2023-01-29T20:21:49.924Z,9.10
2023-01-29T20:24:18.553Z,8.30
2023-01-29T20:26:47.976Z,8.70
2023-01-29T20:29:16.537Z,9.50
2023-01-29T20:31:45.253Z,9.40
2023-01-29T20:34:14.017Z,8.60
2023-01-29T20:36:42.905Z,8.50
2023-01-29T20:39:11.903Z,9.30
2023-01-29T20:41:41.913Z,9.40
2023-01-29T20:44:10.586Z,9.00
2023-01-29T20:46:39.399Z,9.10
2023-01-29T20:49:08.105Z,9.60
2023-01-29T20:51:36.566Z,9.70
2023-01-29T20:54:05.663Z,9.90
2023-01-29T20:56:40.858Z,10.50
2023-01-29T20:59:17.838Z,10.90
2023-01-29T21:01:47.350Z,10.70
2023-01-29T21:04:16.171Z,10.60
2023-01-29T21:07:50.091Z,9.10
2023-01-29T21:11:18.536Z,10.00
2023-01-29T21:14:47.064Z,9.30
2023-01-29T21:18:19.960Z,9.60
2023-01-29T21:23:21.749Z,9.20
2023-01-29T21:25:50.227Z,9.90
2023-01-29T21:28:19.090Z,10.50
2023-01-29T21:30:48.350Z,9.60
2023-01-29T21:33:16.891Z,9.90
2023-01-29T21:35:45.492Z,9.30
2023-01-29T21:38:14.579Z,10.10
2023-01-29T21:40:43.157Z,9.50
2023-01-29T21:43:11.641Z,9.10
2023-01-29T21:45:41.491Z,7.70
2023-01-29T21:48:11.720Z,9.10
2023-01-29T21:50:40.154Z,9.90
2023-01-29T21:53:08.840Z,9.10
2023-01-29T21:55:37.655Z,9.00
2023-01-29T21:58:06.315Z,9.30
2023-01-29T22:00:34.896Z,10.20
2023-01-29T22:03:04.412Z,9.60
2023-01-29T22:05:33.820Z,10.10
2023-01-29T22:08:02.916Z,11.50
2023-01-29T22:10:34.250Z,10.40
2023-01-29T22:13:02.911Z,10.20
2023-01-29T22:15:31.524Z,9.10
2023-01-29T22:18:00.516Z,9.10
2023-01-29T22:20:30.861Z,8.70
2023-01-29T22:23:59.226Z,9.20
2023-01-29T22:27:27.722Z,8.70
2023-01-29T22:30:56.411Z,8.70
2023-01-29T22:33:25.812Z,9.00
2023-01-29T22:35:55.016Z,9.90
2023-01-29T22:38:24.540Z,9.20
2023-01-29T22:40:54.280Z,9.60
2023-01-29T22:43:24.222Z,9.50
2023-01-29T22:45:52.832Z,9.70
2023-01-29T22:48:23.308Z,9.60
2023-01-29T22:51:19.797Z,9.10
2023-01-29T22:53:52.050Z,8.40
2023-01-29T22:56:25.456Z,8.60
2023-01-29T22:58:55.859Z,8.00
2023-01-29T23:01:28.038Z,9.00
2023-01-29T23:03:57.258Z,8.00
2023-01-29T23:06:26.149Z,8.80
2023-01-29T23:08:54.839Z,8.80
2023-01-29T23:11:24.220Z,8.60
2023-01-29T23:13:54.667Z,9.00
2023-01-29T23:16:27.747Z,9.10
2023-01-29T23:18:57.397Z,9.20
2023-01-29T23:21:27.454Z,9.80
2023-01-29T23:23:58.728Z,9.70
2023-01-29T23:26:47.812Z,9.50
2023-01-29T23:29:16.993Z,9.30
2023-01-29T23:31:45.740Z,8.60
2023-01-29T23:34:15.311Z,9.00
2023-01-29T23:36:44.493Z,9.50
2023-01-29T23:39:13.589Z,8.20
2023-01-29T23:41:42.062Z,10.10
2023-01-29T23:44:10.899Z,9.50
2023-01-29T23:46:39.881Z,10.20
2023-01-29T23:49:08.864Z,10.00
2023-01-29T23:51:37.609Z,8.80
2023-01-29T23:54:06.702Z,8.90
2023-01-29T23:56:35.102Z,9.80
2023-01-29T23:59:03.856Z,9.40
